Time;durP1;ratioP1;P1;durP2;ratioP2;P2;SDS_P1;SDS_P2;PMS_P1;PMS_P2;Temp;Humidity;BMP_temperature;BMP_pressure;BME280_temperature;BME280_humidity;BME280_pressure;Samples;Min_cycle;Max_cycle;Signal;HPM_P1;HPM_P2
2021/03/07 00:01:37;;;;;;;9.68;4.65;;;;;;;;;;5052725;28;20093;-60
2021/03/07 00:04:03;;;;;;;8.95;4.13;;;;;;;;;;5052541;28;20059;-60
2021/03/07 00:06:29;;;;;;;5.60;3.30;;;;;;;;;;5052709;28;20045;-60
2021/03/07 00:08:55;;;;;;;8.00;2.95;;;;;;;;;;5052638;28;20112;-60
2021/03/07 00:11:21;;;;;;;8.57;2.97;;;;;;;;;;5052641;28;20052;-60
2021/03/07 00:13:48;;;;;;;4.95;2.90;;;;;;;;;;5052736;28;20021;-60
2021/03/07 00:16:14;;;;;;;5.60;2.70;;;;;;;;;;5052823;28;20074;-60
2021/03/07 00:18:40;;;;;;;4.50;2.55;;;;;;;;;;5052737;28;20435;-60
2021/03/07 00:21:06;;;;;;;5.05;2.30;;;;;;;;;;5054664;28;20032;-60
2021/03/07 00:23:33;;;;;;;6.60;3.15;;;;;;;;;;5055125;28;20486;-60
2021/03/07 00:25:59;;;;;;;5.32;3.45;;;;;;;;;;5056146;28;20107;-60
2021/03/07 00:28:25;;;;;;;7.20;3.70;;;;;;;;;;5056302;28;20115;-60
2021/03/07 00:30:51;;;;;;;6.80;3.30;;;;;;;;;;5055918;28;20052;-61
2021/03/07 00:33:17;;;;;;;6.00;3.47;;;;;;;;;;5055936;28;20029;-60
2021/03/07 00:35:43;;;;;;;5.43;3.25;;;;;;;;;;5054986;28;20025;-61
2021/03/07 00:38:09;;;;;;;7.05;3.45;;;;;;;;;;5056108;28;20048;-60
2021/03/07 00:40:35;;;;;;;7.35;3.40;;;;;;;;;;5055840;28;20029;-61
2021/03/07 00:43:02;;;;;;;4.50;2.67;;;;;;;;;;5055989;28;20075;-61
2021/03/07 00:45:28;;;;;;;7.55;3.47;;;;;;;;;;5055720;28;20075;-61
2021/03/07 00:47:54;;;;;;;5.40;3.50;;;;;;;;;;5055884;28;20100;-61
2021/03/07 00:50:21;;;;;;;6.55;3.65;;;;;;;;;;5055826;28;20029;-61
2021/03/07 00:52:47;;;;;;;5.40;3.42;;;;;;;;;;5055648;28;20021;-61
2021/03/07 00:55:13;;;;;;;6.82;3.47;;;;;;;;;;5055440;28;20029;-61
2021/03/07 00:57:40;;;;;;;8.57;3.38;;;;;;;;;;5055716;28;20520;-61
2021/03/07 01:00:29;;;;;;;5.95;2.72;;;;;;;;;;5055262;28;20486;-61
2021/03/07 01:02:55;;;;;;;5.40;3.50;;;;;;;;;;5052565;28;20385;-61
2021/03/07 01:05:24;;;;;;;10.77;3.67;;;;;;;;;;5055227;28;20021;-60
2021/03/07 01:07:50;;;;;;;5.68;3.28;;;;;;;;;;5055682;28;20029;-61
2021/03/07 01:10:19;;;;;;;5.93;3.30;;;;;;;;;;5055185;28;20029;-60
2021/03/07 01:12:47;;;;;;;6.93;3.00;;;;;;;;;;5055101;28;20060;-61
2021/03/07 01:15:13;;;;;;;5.85;3.30;;;;;;;;;;5055196;28;20482;-61
2021/03/07 01:17:39;;;;;;;5.68;2.78;;;;;;;;;;5055071;28;20418;-61
2021/03/07 01:20:14;;;;;;;7.63;3.40;;;;;;;;;;5054931;28;20076;-61
2021/03/07 01:22:40;;;;;;;7.32;3.17;;;;;;;;;;5055051;28;20482;-61
2021/03/07 01:25:07;;;;;;;8.30;4.28;;;;;;;;;;5055000;28;20028;-61
2021/03/07 01:27:33;;;;;;;7.43;4.55;;;;;;;;;;5054986;28;20033;-61
2021/03/07 01:29:59;;;;;;;6.70;3.22;;;;;;;;;;5054921;28;20490;-61
2021/03/07 01:32:26;;;;;;;6.00;3.35;;;;;;;;;;5053756;28;20470;-60
2021/03/07 01:34:52;;;;;;;7.00;3.45;;;;;;;;;;5054841;28;20044;-61
2021/03/07 01:37:18;;;;;;;7.03;3.90;;;;;;;;;;5054712;28;20028;-61
2021/03/07 01:39:44;;;;;;;8.68;3.88;;;;;;;;;;5054683;28;20518;-60
2021/03/07 01:42:11;;;;;;;10.20;3.83;;;;;;;;;;5054934;28;20025;-61
2021/03/07 01:44:38;;;;;;;7.72;4.30;;;;;;;;;;5054591;28;20025;-60
2021/03/07 01:47:04;;;;;;;7.53;4.05;;;;;;;;;;5054710;28;20025;-61
2021/03/07 01:49:30;;;;;;;7.32;4.07;;;;;;;;;;5054557;28;20047;-60
2021/03/07 01:51:57;;;;;;;7.82;3.83;;;;;;;;;;5054416;28;20033;-61
2021/03/07 01:54:23;;;;;;;9.32;3.50;;;;;;;;;;5054447;28;20032;-61
2021/03/07 01:56:51;;;;;;;8.13;3.05;;;;;;;;;;5054343;28;20039;-61
2021/03/07 01:59:20;;;;;;;8.45;3.80;;;;;;;;;;5054322;28;20069;-61
2021/03/07 02:01:47;;;;;;;7.45;3.13;;;;;;;;;;5054493;28;20032;-61
2021/03/07 02:04:13;;;;;;;4.78;2.63;;;;;;;;;;5054516;28;20094;-61
2021/03/07 02:06:39;;;;;;;6.68;2.78;;;;;;;;;;5054633;28;20017;-61
2021/03/07 02:09:06;;;;;;;5.70;2.70;;;;;;;;;;5054898;28;20104;-61
2021/03/07 02:11:33;;;;;;;5.47;2.83;;;;;;;;;;5054069;28;20099;-61
2021/03/07 02:14:00;;;;;;;5.95;3.10;;;;;;;;;;5054183;28;20021;-60
2021/03/07 02:16:26;;;;;;;5.05;2.85;;;;;;;;;;5053958;28;20060;-61
2021/03/07 02:18:53;;;;;;;6.45;2.95;;;;;;;;;;5054180;28;20111;-61
2021/03/07 02:21:27;;;;;;;6.05;3.08;;;;;;;;;;5054172;28;20028;-60
2021/03/07 02:23:56;;;;;;;5.88;2.83;;;;;;;;;;5054205;28;20377;-61
2021/03/07 02:26:23;;;;;;;6.13;3.33;;;;;;;;;;5052534;28;20052;-61
2021/03/07 02:28:49;;;;;;;7.22;3.25;;;;;;;;;;5053951;28;20021;-61
2021/03/07 02:31:17;;;;;;;9.98;4.63;;;;;;;;;;5053765;28;20028;-60
2021/03/07 02:33:43;;;;;;;5.65;3.38;;;;;;;;;;5053993;28;20021;-61
2021/03/07 02:36:11;;;;;;;8.18;3.83;;;;;;;;;;5053909;28;20025;-61
2021/03/07 02:38:38;;;;;;;11.95;5.95;;;;;;;;;;5053536;28;20060;-61
2021/03/07 02:41:06;;;;;;;12.85;5.47;;;;;;;;;;5053796;28;20025;-61
2021/03/07 02:43:34;;;;;;;10.77;5.35;;;;;;;;;;5053295;28;20031;-61
2021/03/07 02:46:01;;;;;;;10.57;5.07;;;;;;;;;;5053772;28;20134;-61
2021/03/07 02:48:28;;;;;;;9.52;4.80;;;;;;;;;;5053688;28;20346;-61
2021/03/07 02:50:55;;;;;;;7.35;4.18;;;;;;;;;;5053372;28;20466;-61
2021/03/07 02:53:23;;;;;;;9.82;5.75;;;;;;;;;;5053374;28;20021;-61
2021/03/07 02:56:00;;;;;;;13.52;7.30;;;;;;;;;;5053626;28;20154;-61
2021/03/07 02:58:26;;;;;;;13.70;6.22;;;;;;;;;;5053330;28;20032;-61
2021/03/07 03:00:58;;;;;;;11.73;6.35;;;;;;;;;;5053213;28;20037;-61
2021/03/07 03:03:27;;;;;;;10.88;5.60;;;;;;;;;;5053294;28;20025;-61
2021/03/07 03:05:53;;;;;;;14.00;6.35;;;;;;;;;;5053460;28;20025;-61
2021/03/07 03:08:21;;;;;;;12.23;6.82;;;;;;;;;;5053118;28;20031;-61
2021/03/07 03:10:49;;;;;;;15.52;7.80;;;;;;;;;;5052996;28;20111;-61
2021/03/07 03:13:15;;;;;;;16.08;7.88;;;;;;;;;;5053374;28;20025;-60
2021/03/07 03:15:42;;;;;;;13.27;6.07;;;;;;;;;;5053423;28;20029;-60
2021/03/07 03:18:09;;;;;;;11.80;6.65;;;;;;;;;;5052918;28;20425;-60
2021/03/07 03:20:35;;;;;;;19.95;8.77;;;;;;;;;;5053366;28;20052;-60
2021/03/07 03:23:01;;;;;;;21.73;9.35;;;;;;;;;;5052939;28;20029;-61
2021/03/07 03:25:28;;;;;;;19.48;8.50;;;;;;;;;;5053333;28;20048;-60
2021/03/07 03:27:56;;;;;;;16.48;8.40;;;;;;;;;;5052790;28;20098;-60
2021/03/07 03:30:22;;;;;;;15.70;5.93;;;;;;;;;;5053123;28;20025;-61
2021/03/07 03:32:49;;;;;;;12.98;5.38;;;;;;;;;;5052671;28;20033;-61
2021/03/07 03:35:17;;;;;;;9.93;5.40;;;;;;;;;;5028058;28;20382;-60
2021/03/07 03:37:44;;;;;;;10.60;5.32;;;;;;;;;;5011812;28;20045;-61
2021/03/07 03:40:13;;;;;;;9.00;4.50;;;;;;;;;;5011749;28;20034;-61
2021/03/07 03:42:39;;;;;;;11.27;5.65;;;;;;;;;;5012206;28;20029;-61
2021/03/07 03:45:07;;;;;;;11.80;5.38;;;;;;;;;;5012373;28;20475;-60
2021/03/07 03:47:34;;;;;;;7.97;3.92;;;;;;;;;;5012231;28;20026;-61
2021/03/07 03:50:01;;;;;;;8.70;3.70;;;;;;;;;;5012431;28;20029;-60
2021/03/07 03:52:29;;;;;;;6.85;3.38;;;;;;;;;;5012621;28;20030;-60
2021/03/07 03:54:58;;;;;;;6.57;3.42;;;;;;;;;;5013970;28;20033;-61
2021/03/07 03:57:34;;;;;;;5.45;2.83;;;;;;;;;;5029830;28;20021;-59
2021/03/07 04:00:02;;;;;;;7.95;2.83;;;;;;;;;;5038257;28;20045;-60
2021/03/07 04:02:29;;;;;;;5.68;2.90;;;;;;;;;;5033452;28;20021;-60
2021/03/07 04:04:56;;;;;;;7.80;2.83;;;;;;;;;;5033966;28;20040;-60
2021/03/07 04:07:23;;;;;;;6.70;3.20;;;;;;;;;;5036877;28;20036;-61
2021/03/07 04:09:50;;;;;;;8.18;3.13;;;;;;;;;;5036352;28;20026;-60
2021/03/07 04:12:17;;;;;;;6.72;3.35;;;;;;;;;;5036262;28;20502;-61
2021/03/07 04:14:43;;;;;;;6.43;3.13;;;;;;;;;;5036640;28;20095;-61
2021/03/07 04:17:10;;;;;;;5.70;2.72;;;;;;;;;;5036578;28;20026;-60
2021/03/07 04:19:36;;;;;;;6.45;2.63;;;;;;;;;;5036229;28;20494;-61
2021/03/07 04:22:02;;;;;;;6.88;3.22;;;;;;;;;;5036184;28;20113;-61
2021/03/07 04:24:29;;;;;;;12.57;5.55;;;;;;;;;;5036174;28;20017;-61
2021/03/07 04:26:57;;;;;;;16.17;5.55;;;;;;;;;;5036746;28;20079;-60
2021/03/07 04:29:25;;;;;;;9.63;4.28;;;;;;;;;;5036255;28;20084;-61
2021/03/07 04:31:52;;;;;;;8.35;4.55;;;;;;;;;;5036360;28;20104;-61
2021/03/07 04:34:18;;;;;;;11.60;4.60;;;;;;;;;;5035966;28;20041;-61
2021/03/07 04:36:44;;;;;;;10.52;4.07;;;;;;;;;;5036030;28;20494;-61
2021/03/07 04:39:11;;;;;;;8.95;3.58;;;;;;;;;;5035742;28;20041;-61
2021/03/07 04:41:37;;;;;;;8.65;3.25;;;;;;;;;;5028569;28;20475;-61
2021/03/07 04:44:03;;;;;;;6.85;3.50;;;;;;;;;;5015989;28;20486;-61
2021/03/07 04:46:29;;;;;;;7.68;3.30;;;;;;;;;;5016298;28;20018;-61
2021/03/07 04:48:56;;;;;;;5.78;3.10;;;;;;;;;;5015982;28;20022;-61
2021/03/07 04:51:23;;;;;;;7.97;2.75;;;;;;;;;;5016152;28;20022;-61
2021/03/07 04:53:49;;;;;;;5.20;3.42;;;;;;;;;;5015863;28;20434;-61
2021/03/07 04:56:15;;;;;;;7.85;3.50;;;;;;;;;;5016019;28;20105;-61
2021/03/07 04:58:41;;;;;;;8.27;4.22;;;;;;;;;;5015633;28;20493;-61
2021/03/07 05:01:08;;;;;;;12.40;4.65;;;;;;;;;;5016010;28;20101;-61
2021/03/07 05:03:34;;;;;;;10.38;5.03;;;;;;;;;;5015729;28;20077;-61
2021/03/07 05:06:00;;;;;;;10.50;4.10;;;;;;;;;;5015480;28;20080;-61
2021/03/07 05:08:29;;;;;;;8.35;3.60;;;;;;;;;;5015933;28;20029;-61
2021/03/07 05:10:55;;;;;;;8.45;3.47;;;;;;;;;;5015381;28;20038;-61
2021/03/07 05:13:21;;;;;;;9.68;4.68;;;;;;;;;;5015566;28;20471;-61
2021/03/07 05:15:47;;;;;;;9.32;5.10;;;;;;;;;;5015731;28;20064;-61
2021/03/07 05:18:14;;;;;;;8.73;4.57;;;;;;;;;;5015283;28;20038;-61
2021/03/07 05:20:40;;;;;;;9.18;4.20;;;;;;;;;;5015270;28;20029;-61
2021/03/07 05:23:06;;;;;;;10.82;3.95;;;;;;;;;;5015360;28;20022;-61
2021/03/07 05:25:33;;;;;;;5.63;2.90;;;;;;;;;;5015431;28;20509;-61
2021/03/07 05:27:59;;;;;;;6.78;3.20;;;;;;;;;;5015644;28;20168;-61
2021/03/07 05:30:25;;;;;;;6.25;3.47;;;;;;;;;;5015454;28;20045;-68
2021/03/07 05:32:52;;;;;;;9.10;3.38;;;;;;;;;;5015544;28;20073;-62
2021/03/07 05:35:19;;;;;;;23.50;10.25;;;;;;;;;;5013859;28;20030;-62
2021/03/07 05:37:45;;;;;;;21.23;8.68;;;;;;;;;;5015098;28;20026;-62
2021/03/07 05:40:11;;;;;;;8.73;4.43;;;;;;;;;;5014900;28;20041;-63
2021/03/07 05:42:37;;;;;;;9.57;5.05;;;;;;;;;;5014931;28;20032;-62
2021/03/07 05:45:04;;;;;;;8.80;4.28;;;;;;;;;;5014970;28;20105;-62
2021/03/07 05:47:30;;;;;;;28.27;10.82;;;;;;;;;;5014901;28;20053;-62
2021/03/07 05:49:56;;;;;;;16.58;7.85;;;;;;;;;;5014911;28;20108;-62
2021/03/07 05:52:23;;;;;;;180.18;64.00;;;;;;;;;;5014829;28;20033;-62
2021/03/07 05:54:50;;;;;;;50.53;19.88;;;;;;;;;;5014641;28;20030;-62
2021/03/07 05:57:16;;;;;;;53.05;22.00;;;;;;;;;;5015012;28;20079;-62
2021/03/07 05:59:43;;;;;;;187.33;72.33;;;;;;;;;;5014519;28;20038;-61
2021/03/07 06:02:13;;;;;;;11.95;5.85;;;;;;;;;;5014644;28;20049;-61
2021/03/07 06:04:39;;;;;;;129.07;55.97;;;;;;;;;;5014893;28;20088;-62
2021/03/07 06:07:05;;;;;;;320.85;131.40;;;;;;;;;;5014700;28;20125;-62
2021/03/07 06:09:31;;;;;;;52.15;24.40;;;;;;;;;;5014483;28;20101;-62
2021/03/07 06:11:59;;;;;;;13.18;6.70;;;;;;;;;;5014235;28;20065;-63
2021/03/07 06:14:28;;;;;;;10.48;5.28;;;;;;;;;;5014731;28;20466;-63
2021/03/07 06:17:00;;;;;;;10.43;4.33;;;;;;;;;;5014489;28;20021;-63
2021/03/07 06:19:27;;;;;;;7.55;3.50;;;;;;;;;;5012617;28;20064;-61
2021/03/07 06:21:53;;;;;;;6.00;3.47;;;;;;;;;;5014302;28;20029;-62
2021/03/07 06:24:39;;;;;;;5.40;3.03;;;;;;;;;;5014469;28;20022;-62
2021/03/07 06:27:06;;;;;;;5.38;2.50;;;;;;;;;;5014275;28;20030;-62
2021/03/07 06:29:32;;;;;;;7.63;3.00;;;;;;;;;;5014176;28;20493;-62
2021/03/07 06:31:58;;;;;;;8.48;2.92;;;;;;;;;;5014053;28;20060;-61
2021/03/07 06:34:24;;;;;;;5.85;3.10;;;;;;;;;;5014076;28;20362;-62
2021/03/07 06:37:04;;;;;;;5.65;2.95;;;;;;;;;;5014241;28;20026;-62
2021/03/07 06:39:30;;;;;;;11.13;3.95;;;;;;;;;;5013913;28;20052;-61
2021/03/07 06:42:03;;;;;;;6.03;3.08;;;;;;;;;;5014015;28;20106;-63
2021/03/07 06:44:29;;;;;;;6.70;3.25;;;;;;;;;;5013853;28;20084;-62
2021/03/07 06:47:06;;;;;;;8.40;3.00;;;;;;;;;;5013852;28;20030;-62
2021/03/07 06:49:32;;;;;;;14.18;5.45;;;;;;;;;;5013845;28;20052;-62
2021/03/07 06:52:12;;;;;;;12.20;6.03;;;;;;;;;;5013859;28;20476;-63
2021/03/07 06:54:38;;;;;;;13.57;7.85;;;;;;;;;;5014150;28;20433;-62
2021/03/07 06:57:04;;;;;;;10.82;5.90;;;;;;;;;;5013768;28;20022;-62
2021/03/07 06:59:30;;;;;;;51.85;23.60;;;;;;;;;;5013559;28;20049;-62
2021/03/07 07:01:57;;;;;;;18.80;8.98;;;;;;;;;;5013468;28;20479;-62
2021/03/07 07:04:25;;;;;;;15.85;7.88;;;;;;;;;;5013591;28;20030;-63
2021/03/07 07:07:01;;;;;;;19.92;10.48;;;;;;;;;;5013606;28;20026;-63
2021/03/07 07:09:27;;;;;;;36.72;15.50;;;;;;;;;;5013409;28;20034;-62
2021/03/07 07:11:54;;;;;;;128.00;53.35;;;;;;;;;;5013440;28;20149;-62
2021/03/07 07:14:40;;;;;;;50.05;22.38;;;;;;;;;;5013533;28;20034;-63
2021/03/07 07:17:08;;;;;;;23.85;12.00;;;;;;;;;;5013801;28;20046;-63
2021/03/07 07:19:34;;;;;;;14.50;6.18;;;;;;;;;;5013475;28;20042;-62
2021/03/07 07:22:00;;;;;;;12.57;4.95;;;;;;;;;;5013504;28;20053;-62
2021/03/07 07:24:26;;;;;;;11.05;5.70;;;;;;;;;;5013360;28;20038;-62
2021/03/07 07:26:56;;;;;;;18.05;6.28;;;;;;;;;;5013385;28;20022;-62
2021/03/07 07:29:22;;;;;;;6.97;4.25;;;;;;;;;;5013666;28;20115;-63
2021/03/07 07:32:01;;;;;;;7.68;4.53;;;;;;;;;;5017361;28;20478;-62
2021/03/07 07:34:29;;;;;;;9.48;4.25;;;;;;;;;;5017398;28;20117;-62
2021/03/07 07:36:55;;;;;;;15.43;4.68;;;;;;;;;;5017183;28;20026;-62
2021/03/07 07:39:29;;;;;;;12.18;4.63;;;;;;;;;;5017564;28;20038;-62
2021/03/07 07:41:56;;;;;;;7.05;3.95;;;;;;;;;;5028956;28;20100;-62
2021/03/07 07:44:32;;;;;;;9.75;5.40;;;;;;;;;;5037164;28;20475;-62
2021/03/07 07:46:59;;;;;;;8.35;3.65;;;;;;;;;;5036971;28;20048;-63
2021/03/07 07:49:39;;;;;;;7.47;4.22;;;;;;;;;;5036735;28;20021;-63
2021/03/07 07:52:23;;;;;;;8.43;4.55;;;;;;;;;;5036707;28;20104;-64
2021/03/07 07:54:51;;;;;;;11.45;5.07;;;;;;;;;;5036844;28;20035;-63
2021/03/07 07:57:40;;;;;;;7.90;4.90;;;;;;;;;;5036929;28;20397;-64
2021/03/07 08:00:08;;;;;;;11.98;4.90;;;;;;;;;;5036889;28;20042;-65
2021/03/07 08:02:43;;;;;;;7.43;4.22;;;;;;;;;;5037013;28;20104;-66
2021/03/07 08:05:21;;;;;;;9.68;4.88;;;;;;;;;;5036654;28;20036;-64
2021/03/07 08:08:07;;;;;;;8.20;4.80;;;;;;;;;;5036762;28;20036;-64
2021/03/07 08:10:50;;;;;;;10.10;4.72;;;;;;;;;;5036588;28;20045;-64
2021/03/07 08:13:16;;;;;;;9.38;4.50;;;;;;;;;;5036607;28;20461;-64
2021/03/07 08:15:50;;;;;;;11.00;4.90;;;;;;;;;;5036777;28;20378;-64
2021/03/07 08:18:17;;;;;;;10.57;4.10;;;;;;;;;;5036455;28;20074;-64
2021/03/07 08:20:47;;;;;;;8.43;4.40;;;;;;;;;;5036328;28;20541;-64
2021/03/07 08:23:14;;;;;;;13.48;4.35;;;;;;;;;;5036112;28;20021;-63
2021/03/07 08:25:49;;;;;;;23.35;9.75;;;;;;;;;;5036253;28;20037;-63
2021/03/07 08:28:24;;;;;;;16.60;4.07;;;;;;;;;;5036272;28;20057;-63
2021/03/07 08:30:50;;;;;;;10.68;5.32;;;;;;;;;;5036067;28;20044;-63
2021/03/07 08:33:22;;;;;;;13.02;4.72;;;;;;;;;;5036040;28;20032;-63
2021/03/07 08:36:07;;;;;;;7.65;4.20;;;;;;;;;;5036320;28;20053;-61
2021/03/07 08:38:33;;;;;;;5.75;3.47;;;;;;;;;;5035809;28;20036;-61
2021/03/07 08:41:00;;;;;;;10.68;6.20;;;;;;;;;;5028060;28;20073;-61
2021/03/07 08:43:26;;;;;;;5.95;3.20;;;;;;;;;;5035789;28;20025;-62
2021/03/07 08:46:03;;;;;;;6.57;3.10;;;;;;;;;;5035859;28;20029;-62
2021/03/07 08:48:30;;;;;;;7.13;3.22;;;;;;;;;;5019550;28;20109;-63
2021/03/07 08:50:56;;;;;;;9.98;3.40;;;;;;;;;;5016320;28;20065;-61
2021/03/07 08:53:27;;;;;;;5.10;3.05;;;;;;;;;;5016397;28;20026;-62
2021/03/07 08:55:53;;;;;;;7.38;3.38;;;;;;;;;;5016018;28;20029;-61
2021/03/07 08:58:20;;;;;;;7.57;4.43;;;;;;;;;;5015693;28;20099;-61
2021/03/07 09:00:50;;;;;;;8.27;3.47;;;;;;;;;;5016089;28;20379;-60
2021/03/07 09:03:17;;;;;;;7.45;2.97;;;;;;;;;;5015951;28;20176;-62
2021/03/07 09:05:44;;;;;;;5.65;2.28;;;;;;;;;;5015719;28;20030;-62
2021/03/07 09:08:10;;;;;;;5.97;2.70;;;;;;;;;;5015651;28;20026;-61
2021/03/07 09:10:37;;;;;;;4.78;2.78;;;;;;;;;;5015861;28;20022;-62
2021/03/07 09:13:10;;;;;;;5.65;2.85;;;;;;;;;;5015786;28;20037;-63
2021/03/07 09:15:50;;;;;;;4.88;2.65;;;;;;;;;;5016048;28;20025;-63
2021/03/07 09:18:17;;;;;;;4.75;2.70;;;;;;;;;;5015485;28;20109;-63
2021/03/07 09:20:44;;;;;;;6.95;3.97;;;;;;;;;;5015826;28;20390;-63
2021/03/07 09:23:29;;;;;;;4.82;2.95;;;;;;;;;;5015675;28;20356;-62
2021/03/07 09:25:55;;;;;;;9.80;3.30;;;;;;;;;;5015755;28;20493;-63
2021/03/07 09:28:32;;;;;;;5.18;3.03;;;;;;;;;;5015280;28;20505;-63
2021/03/07 09:30:59;;;;;;;6.65;3.83;;;;;;;;;;5015313;28;20038;-63
2021/03/07 09:33:25;;;;;;;5.82;3.40;;;;;;;;;;5015275;28;20026;-62
2021/03/07 09:36:01;;;;;;;6.85;3.28;;;;;;;;;;5015275;28;20070;-62
2021/03/07 09:38:38;;;;;;;7.88;2.75;;;;;;;;;;5014995;28;20026;-61
2021/03/07 09:41:05;;;;;;;5.13;3.17;;;;;;;;;;5015115;28;20486;-61
2021/03/07 09:43:31;;;;;;;5.75;3.35;;;;;;;;;;5015008;28;20022;-63
2021/03/07 09:45:57;;;;;;;6.05;3.13;;;;;;;;;;5023558;28;20597;-63
2021/03/07 09:48:31;;;;;;;7.43;2.90;;;;;;;;;;5035004;28;20021;-63
2021/03/07 09:50:58;;;;;;;9.88;3.72;;;;;;;;;;5034855;28;20037;-62
2021/03/07 09:53:24;;;;;;;5.55;2.80;;;;;;;;;;5033832;28;20025;-63
2021/03/07 09:55:50;;;;;;;5.25;2.90;;;;;;;;;;5033395;28;20075;-62
2021/03/07 09:58:17;;;;;;;7.60;3.15;;;;;;;;;;5014688;28;20037;-63
2021/03/07 10:00:51;;;;;;;7.03;2.88;;;;;;;;;;5014799;28;20441;-63
2021/03/07 10:03:18;;;;;;;7.18;2.95;;;;;;;;;;5014762;28;20029;-64
2021/03/07 10:06:02;;;;;;;7.07;2.90;;;;;;;;;;5015005;28;20558;-61
2021/03/07 10:08:31;;;;;;;4.90;3.10;;;;;;;;;;5032334;28;20025;-63
2021/03/07 10:11:15;;;;;;;6.40;2.72;;;;;;;;;;5030865;28;20061;-62
2021/03/07 10:13:42;;;;;;;10.05;3.22;;;;;;;;;;5025355;28;20029;-64
2021/03/07 10:16:09;;;;;;;6.55;2.80;;;;;;;;;;5031824;28;20593;-64
2021/03/07 10:18:35;;;;;;;6.63;2.97;;;;;;;;;;5031187;28;20050;-64
2021/03/07 10:21:01;;;;;;;5.53;2.63;;;;;;;;;;5032441;28;20088;-63
2021/03/07 10:23:34;;;;;;;4.78;2.88;;;;;;;;;;5029552;28;20104;-64
2021/03/07 10:26:01;;;;;;;5.60;2.33;;;;;;;;;;5030027;28;20529;-64
2021/03/07 10:28:29;;;;;;;6.43;3.03;;;;;;;;;;5023853;28;20459;-63
2021/03/07 10:30:56;;;;;;;6.70;3.75;;;;;;;;;;5016217;28;20022;-64
2021/03/07 10:33:29;;;;;;;6.38;2.85;;;;;;;;;;5012527;28;20029;-63
2021/03/07 10:36:01;;;;;;;6.00;2.88;;;;;;;;;;5012116;28;20065;-64
2021/03/07 10:38:27;;;;;;;5.40;3.00;;;;;;;;;;5012363;28;20041;-63
2021/03/07 10:40:54;;;;;;;6.45;2.78;;;;;;;;;;5012090;28;20026;-62
2021/03/07 10:43:20;;;;;;;10.32;3.42;;;;;;;;;;5011785;28;20207;-64
2021/03/07 10:45:47;;;;;;;6.65;3.05;;;;;;;;;;5022458;28;20136;-64
2021/03/07 10:48:15;;;;;;;6.80;3.80;;;;;;;;;;5031788;28;20026;-64
2021/03/07 10:50:51;;;;;;;5.70;3.78;;;;;;;;;;5031680;28;20091;-64
2021/03/07 10:53:18;;;;;;;7.82;3.08;;;;;;;;;;5031802;28;20041;-64
2021/03/07 10:55:51;;;;;;;7.55;2.60;;;;;;;;;;5031804;28;20437;-64
2021/03/07 10:58:17;;;;;;;7.47;3.42;;;;;;;;;;5031888;28;20026;-64
2021/03/07 11:00:43;;;;;;;3.30;2.47;;;;;;;;;;5015718;28;20041;-64
2021/03/07 11:03:09;;;;;;;8.27;4.13;;;;;;;;;;5013078;28;20474;-63
2021/03/07 11:05:35;;;;;;;5.22;2.85;;;;;;;;;;5013687;28;20033;-63
2021/03/07 11:08:01;;;;;;;5.72;2.63;;;;;;;;;;5013790;28;20018;-63
2021/03/07 11:10:28;;;;;;;7.68;3.40;;;;;;;;;;5016188;28;20040;-63
2021/03/07 11:12:54;;;;;;;6.07;3.20;;;;;;;;;;5013429;28;20103;-64
2021/03/07 11:15:21;;;;;;;9.65;3.88;;;;;;;;;;5033438;28;20112;-64
2021/03/07 11:17:47;;;;;;;7.65;3.53;;;;;;;;;;5021440;28;20025;-64
2021/03/07 11:20:13;;;;;;;5.25;3.25;;;;;;;;;;5013415;28;20034;-64
2021/03/07 11:22:39;;;;;;;8.50;3.83;;;;;;;;;;5013431;28;20029;-64
2021/03/07 11:25:06;;;;;;;6.07;3.30;;;;;;;;;;5013521;28;20026;-64
2021/03/07 11:27:32;;;;;;;4.72;2.88;;;;;;;;;;5013475;28;20156;-64
2021/03/07 11:29:59;;;;;;;8.10;2.95;;;;;;;;;;5018600;28;20032;-63
2021/03/07 11:32:25;;;;;;;6.65;3.50;;;;;;;;;;5017241;28;20018;-64
2021/03/07 11:34:52;;;;;;;5.70;3.53;;;;;;;;;;5028570;28;20033;-63
2021/03/07 11:37:18;;;;;;;12.80;4.78;;;;;;;;;;5032579;28;20072;-63
2021/03/07 11:39:44;;;;;;;7.43;3.70;;;;;;;;;;5033017;28;20044;-63
2021/03/07 11:42:10;;;;;;;6.13;3.40;;;;;;;;;;5032770;28;20478;-63
2021/03/07 11:44:36;;;;;;;5.90;3.58;;;;;;;;;;5032748;28;20033;-64
2021/03/07 11:47:03;;;;;;;5.55;3.38;;;;;;;;;;5017520;28;20113;-64
2021/03/07 11:49:29;;;;;;;5.32;3.25;;;;;;;;;;5015779;28;20479;-63
2021/03/07 11:51:55;;;;;;;6.97;3.40;;;;;;;;;;5028387;28;20083;-64
2021/03/07 11:54:21;;;;;;;11.15;4.05;;;;;;;;;;5032809;28;20061;-64
2021/03/07 11:56:47;;;;;;;8.45;3.28;;;;;;;;;;5032816;28;20022;-64
2021/03/07 11:59:13;;;;;;;8.52;3.83;;;;;;;;;;5032675;28;20069;-64
2021/03/07 12:01:40;;;;;;;6.95;4.00;;;;;;;;;;5032051;28;20049;-64
2021/03/07 12:04:06;;;;;;;6.43;4.00;;;;;;;;;;5023623;28;20026;-64
2021/03/07 12:06:32;;;;;;;6.15;3.72;;;;;;;;;;5013028;28;20036;-64
2021/03/07 12:08:58;;;;;;;7.57;3.92;;;;;;;;;;5012805;28;20026;-63
2021/03/07 12:11:24;;;;;;;8.35;3.90;;;;;;;;;;5017827;28;20472;-64
2021/03/07 12:13:51;;;;;;;7.18;3.70;;;;;;;;;;5032909;28;20042;-64
2021/03/07 12:16:17;;;;;;;5.47;3.70;;;;;;;;;;5033981;28;20513;-64
2021/03/07 12:18:43;;;;;;;5.90;3.50;;;;;;;;;;5030462;28;20026;-63
2021/03/07 12:21:10;;;;;;;8.13;4.18;;;;;;;;;;5022443;28;20494;-64
2021/03/07 12:23:36;;;;;;;8.73;3.63;;;;;;;;;;5022055;28;20104;-62
2021/03/07 12:26:03;;;;;;;4.93;3.40;;;;;;;;;;5016508;28;20030;-65
2021/03/07 12:28:31;;;;;;;6.68;3.88;;;;;;;;;;5016461;28;20102;-62
2021/03/07 12:30:57;;;;;;;6.97;3.75;;;;;;;;;;5018355;28;20033;-64
2021/03/07 12:33:24;;;;;;;12.70;4.70;;;;;;;;;;5036337;28;20033;-63
2021/03/07 12:35:50;;;;;;;6.32;3.90;;;;;;;;;;5036121;28;20032;-63
2021/03/07 12:38:16;;;;;;;6.50;3.83;;;;;;;;;;5035732;28;20105;-64
2021/03/07 12:40:42;;;;;;;5.28;3.38;;;;;;;;;;5044772;28;20127;-62
2021/03/07 12:43:08;;;;;;;6.07;3.40;;;;;;;;;;5037896;28;20026;-61
2021/03/07 12:45:34;;;;;;;4.60;3.17;;;;;;;;;;5055724;28;20025;-64
2021/03/07 12:48:01;;;;;;;7.07;3.22;;;;;;;;;;5055822;28;20029;-63
2021/03/07 12:50:27;;;;;;;3.97;2.65;;;;;;;;;;5055929;28;20033;-63
2021/03/07 12:52:53;;;;;;;4.25;2.78;;;;;;;;;;5054462;28;20043;-62
2021/03/07 12:55:19;;;;;;;4.65;2.70;;;;;;;;;;5056106;28;20116;-62
2021/03/07 12:57:46;;;;;;;4.40;2.33;;;;;;;;;;5055769;28;20020;-62
2021/03/07 13:00:12;;;;;;;5.13;3.08;;;;;;;;;;5055420;28;20133;-62
2021/03/07 13:02:38;;;;;;;4.70;3.05;;;;;;;;;;5055767;28;20432;-63
2021/03/07 13:05:05;;;;;;;5.65;3.03;;;;;;;;;;5055530;28;20033;-63
2021/03/07 13:07:31;;;;;;;6.22;3.53;;;;;;;;;;5055225;28;20465;-63
2021/03/07 13:09:57;;;;;;;5.22;2.97;;;;;;;;;;5053976;28;20071;-62
2021/03/07 13:12:25;;;;;;;4.32;2.92;;;;;;;;;;5038622;28;20406;-64
2021/03/07 13:14:51;;;;;;;6.45;2.97;;;;;;;;;;5037493;28;20438;-62
2021/03/07 13:17:17;;;;;;;5.13;3.05;;;;;;;;;;5037389;28;20021;-63
2021/03/07 13:19:43;;;;;;;5.22;2.88;;;;;;;;;;5035191;28;20183;-63
2021/03/07 13:22:09;;;;;;;8.35;3.17;;;;;;;;;;5035298;28;20026;-63
2021/03/07 13:24:35;;;;;;;5.57;2.85;;;;;;;;;;5035172;28;20112;-62
2021/03/07 13:27:02;;;;;;;5.47;2.95;;;;;;;;;;5034612;28;20383;-63
2021/03/07 13:29:28;;;;;;;5.07;3.25;;;;;;;;;;5034374;28;20040;-64
2021/03/07 13:31:54;;;;;;;5.07;2.85;;;;;;;;;;5035383;28;20022;-64
2021/03/07 13:34:20;;;;;;;4.22;2.50;;;;;;;;;;5035319;28;20021;-63
2021/03/07 13:36:46;;;;;;;4.53;2.85;;;;;;;;;;5034966;28;20029;-62
2021/03/07 13:39:12;;;;;;;4.22;2.38;;;;;;;;;;5034854;28;20454;-63
2021/03/07 13:41:38;;;;;;;4.88;3.03;;;;;;;;;;5071773;22;20448;-69
2021/03/07 13:44:05;;;;;;;6.28;3.00;;;;;;;;;;5075119;28;20028;-68
2021/03/07 13:46:31;;;;;;;6.00;3.33;;;;;;;;;;5075083;28;20048;-68
2021/03/07 13:48:57;;;;;;;4.53;2.88;;;;;;;;;;5082462;28;20024;-69
2021/03/07 13:51:23;;;;;;;4.95;3.20;;;;;;;;;;5094966;28;20550;-69
2021/03/07 13:53:50;;;;;;;5.57;3.60;;;;;;;;;;5094858;28;20034;-68
2021/03/07 13:56:16;;;;;;;6.03;3.40;;;;;;;;;;5094822;28;20028;-68
2021/03/07 13:58:42;;;;;;;8.57;3.85;;;;;;;;;;5094507;28;20024;-68
2021/03/07 14:01:09;;;;;;;5.20;3.10;;;;;;;;;;5082966;28;20025;-68
2021/03/07 14:03:35;;;;;;;6.07;3.53;;;;;;;;;;5074457;28;20033;-68
2021/03/07 14:06:01;;;;;;;6.38;3.60;;;;;;;;;;5074314;28;20024;-68
2021/03/07 14:08:27;;;;;;;6.13;3.97;;;;;;;;;;5074585;28;20028;-69
2021/03/07 14:10:53;;;;;;;8.23;3.58;;;;;;;;;;5074557;28;20082;-69
2021/03/07 14:13:19;;;;;;;5.30;3.58;;;;;;;;;;5074130;28;20040;-69
2021/03/07 14:15:46;;;;;;;5.60;3.42;;;;;;;;;;5074149;28;20020;-68
2021/03/07 14:18:12;;;;;;;5.28;3.28;;;;;;;;;;5092544;28;20024;-69
2021/03/07 14:20:38;;;;;;;6.47;3.33;;;;;;;;;;5093042;28;20036;-69
2021/03/07 14:23:04;;;;;;;9.75;3.58;;;;;;;;;;5094365;28;20019;-69
2021/03/07 14:25:30;;;;;;;5.80;3.90;;;;;;;;;;5088894;28;20111;-69
2021/03/07 14:27:56;;;;;;;5.80;3.80;;;;;;;;;;5073783;28;20086;-69
2021/03/07 14:30:23;;;;;;;7.50;4.53;;;;;;;;;;5072322;28;20089;-69
2021/03/07 14:32:49;;;;;;;6.40;3.25;;;;;;;;;;5072976;28;20032;-69
2021/03/07 14:35:15;;;;;;;7.50;3.40;;;;;;;;;;5072187;28;20040;-69
2021/03/07 14:37:43;;;;;;;6.05;3.17;;;;;;;;;;5074080;28;20380;-69
2021/03/07 14:40:10;;;;;;;5.85;3.30;;;;;;;;;;5073165;28;20037;-69
2021/03/07 14:42:36;;;;;;;6.40;3.10;;;;;;;;;;5073580;28;20049;-69